createdAt,value
2022-12-03T00:00:20.987Z,56.85
2022-12-03T00:02:47.573Z,57.13
2022-12-03T00:05:14.400Z,61.00
2022-12-03T00:07:40.965Z,56.55
2022-12-03T00:10:08.082Z,58.53
2022-12-03T00:12:36.927Z,57.08
2022-12-03T00:15:04.380Z,55.30
2022-12-03T00:17:30.836Z,55.50
2022-12-03T00:19:57.423Z,55.03
2022-12-03T00:22:24.264Z,56.90
2022-12-03T00:24:50.957Z,52.95
2022-12-03T00:27:17.697Z,54.20
2022-12-03T00:29:44.328Z,50.22
2022-12-03T00:32:10.865Z,52.88
2022-12-03T00:34:37.393Z,54.25
2022-12-03T00:37:03.854Z,53.30
2022-12-03T00:39:30.375Z,55.03
2022-12-03T00:41:56.936Z,54.83
2022-12-03T00:44:23.602Z,55.95
2022-12-03T00:46:50.204Z,53.70
2022-12-03T00:49:16.808Z,49.47
2022-12-03T00:51:43.369Z,54.50
2022-12-03T00:54:09.839Z,50.38
2022-12-03T00:56:36.414Z,51.20
2022-12-03T00:59:03.085Z,50.40
2022-12-03T01:01:29.697Z,51.22
2022-12-03T01:03:56.270Z,48.22
2022-12-03T01:06:22.778Z,51.63
2022-12-03T01:08:49.213Z,49.22
2022-12-03T01:11:38.743Z,48.92
2022-12-03T01:14:11.717Z,50.35
2022-12-03T01:16:38.695Z,52.65
2022-12-03T01:19:06.264Z,47.22
2022-12-03T01:21:33.257Z,51.28
2022-12-03T01:24:00.109Z,50.40
2022-12-03T01:26:26.752Z,49.85
2022-12-03T01:28:53.298Z,50.15
2022-12-03T01:31:38.934Z,50.58
2022-12-03T01:34:08.183Z,43.70
2022-12-03T01:36:34.721Z,48.55
2022-12-03T01:39:02.829Z,50.80
2022-12-03T01:41:29.871Z,51.35
2022-12-03T01:43:59.220Z,49.85
2022-12-03T01:46:35.958Z,52.10
2022-12-03T01:49:02.459Z,50.35
2022-12-03T01:51:30.276Z,48.85
2022-12-03T01:53:58.549Z,51.25
2022-12-03T01:56:25.049Z,48.47
2022-12-03T01:58:51.624Z,52.47
2022-12-03T02:01:19.362Z,53.00
2022-12-03T02:03:46.194Z,50.58
2022-12-03T02:06:18.563Z,52.78
2022-12-03T02:08:46.631Z,49.40
2022-12-03T02:11:25.496Z,50.92
2022-12-03T02:13:56.469Z,51.75
2022-12-03T02:16:25.478Z,50.13
2022-12-03T02:18:52.083Z,53.85
2022-12-03T02:21:41.958Z,53.08
2022-12-03T02:24:36.266Z,49.15
2022-12-03T02:27:02.871Z,51.08
2022-12-03T02:29:30.570Z,49.28
2022-12-03T02:31:57.307Z,50.60
2022-12-03T02:34:38.913Z,49.70
2022-12-03T02:37:09.853Z,55.50
2022-12-03T02:39:40.432Z,52.75
2022-12-03T02:42:25.961Z,46.47
2022-12-03T02:44:53.389Z,45.92
2022-12-03T02:47:20.985Z,45.63
2022-12-03T02:49:47.693Z,46.42
2022-12-03T02:52:14.487Z,47.33
2022-12-03T02:54:41.353Z,45.30
2022-12-03T02:57:10.065Z,46.45
2022-12-03T02:59:36.777Z,47.80
2022-12-03T03:02:03.385Z,45.83
2022-12-03T03:04:30.370Z,46.20
2022-12-03T03:06:56.892Z,46.55
2022-12-03T03:09:26.001Z,49.97
2022-12-03T03:11:52.445Z,48.58
2022-12-03T03:14:18.940Z,51.45
2022-12-03T03:16:45.571Z,50.50
2022-12-03T03:19:12.277Z,49.30
2022-12-03T03:21:38.780Z,47.90
2022-12-03T03:24:05.498Z,43.60
2022-12-03T03:26:32.014Z,43.05
2022-12-03T03:29:00.322Z,44.83
2022-12-03T03:31:26.913Z,42.30
2022-12-03T03:33:53.447Z,45.00
2022-12-03T03:36:20.562Z,43.85
2022-12-03T03:38:47.555Z,45.30
2022-12-03T03:41:15.423Z,43.20
2022-12-03T03:43:44.067Z,41.90
2022-12-03T03:46:12.030Z,42.28
2022-12-03T03:48:40.267Z,40.72
2022-12-03T03:51:10.443Z,40.10
2022-12-03T03:53:40.369Z,39.65
2022-12-03T03:56:08.169Z,37.35
2022-12-03T03:58:34.698Z,38.03
2022-12-03T04:01:01.550Z,36.45
2022-12-03T04:03:29.243Z,41.10
2022-12-03T04:05:56.070Z,43.08
2022-12-03T04:08:22.593Z,38.67
2022-12-03T04:11:07.582Z,37.53
2022-12-03T04:13:34.037Z,40.47
2022-12-03T04:16:00.552Z,39.33
2022-12-03T04:18:45.283Z,36.75
2022-12-03T04:21:36.638Z,35.70
2022-12-03T04:24:04.604Z,32.60
2022-12-03T04:26:50.055Z,30.83
2022-12-03T04:29:16.475Z,31.80
2022-12-03T04:32:01.439Z,31.38
2022-12-03T04:34:46.482Z,30.05
2022-12-03T04:37:15.440Z,32.35
2022-12-03T04:39:41.970Z,32.75
2022-12-03T04:42:08.520Z,31.30
2022-12-03T04:44:38.291Z,27.90
2022-12-03T04:47:14.490Z,30.85
2022-12-03T04:49:48.407Z,28.52
2022-12-03T04:52:17.001Z,28.90
2022-12-03T04:54:43.844Z,32.17
2022-12-03T04:57:13.324Z,31.65
2022-12-03T04:59:39.866Z,30.90
2022-12-03T05:02:07.099Z,31.60
2022-12-03T05:04:36.665Z,28.75
2022-12-03T05:07:03.709Z,31.27
2022-12-03T05:09:30.169Z,29.77
2022-12-03T05:11:56.648Z,28.65
2022-12-03T05:14:23.151Z,28.20
2022-12-03T05:16:49.649Z,27.20
2022-12-03T05:19:16.136Z,29.23
2022-12-03T05:21:42.603Z,27.13
2022-12-03T05:24:09.036Z,30.35
2022-12-03T05:26:37.752Z,29.30
2022-12-03T05:29:04.207Z,28.75
2022-12-03T05:31:30.722Z,28.48
2022-12-03T05:33:57.233Z,26.80
2022-12-03T05:36:25.292Z,27.77
2022-12-03T05:38:51.748Z,28.08
2022-12-03T05:41:36.877Z,28.35
2022-12-03T05:44:03.386Z,25.02
2022-12-03T05:46:29.924Z,24.48
2022-12-03T05:48:56.414Z,26.48
2022-12-03T05:51:25.119Z,29.25
2022-12-03T05:53:51.564Z,26.52
2022-12-03T05:56:18.016Z,27.52
2022-12-03T05:58:44.432Z,25.95
2022-12-03T06:01:10.864Z,24.42
2022-12-03T06:03:37.458Z,27.20
2022-12-03T06:06:04.325Z,26.10
2022-12-03T06:08:30.749Z,26.52
2022-12-03T06:10:57.230Z,26.55
2022-12-03T06:13:23.682Z,25.48
2022-12-03T06:15:50.241Z,25.73
2022-12-03T06:18:16.759Z,28.15
2022-12-03T06:20:43.225Z,27.33
2022-12-03T06:23:09.757Z,25.48
2022-12-03T06:25:36.299Z,27.48
2022-12-03T06:28:02.922Z,28.25
2022-12-03T06:30:29.507Z,28.63
2022-12-03T06:32:55.968Z,26.35
2022-12-03T06:35:22.436Z,24.85
2022-12-03T06:37:48.948Z,24.10
2022-12-03T06:40:16.700Z,29.35
2022-12-03T06:42:43.304Z,25.85
2022-12-03T06:45:10.115Z,26.55
2022-12-03T06:47:36.924Z,26.05
2022-12-03T06:50:04.482Z,24.77
2022-12-03T06:52:30.974Z,26.02
2022-12-03T06:54:57.515Z,30.10
2022-12-03T06:57:24.044Z,29.13
2022-12-03T06:59:50.682Z,28.48
2022-12-03T07:02:17.433Z,30.38
2022-12-03T07:04:46.645Z,24.95
2022-12-03T07:07:14.070Z,29.75
2022-12-03T07:09:40.541Z,27.40
2022-12-03T07:12:09.230Z,26.38
2022-12-03T07:14:35.727Z,27.08
2022-12-03T07:17:02.210Z,26.70
2022-12-03T07:19:33.009Z,31.35
2022-12-03T07:22:05.280Z,30.75
2022-12-03T07:24:31.818Z,26.08
2022-12-03T07:26:58.300Z,27.73
2022-12-03T07:29:24.898Z,26.10
2022-12-03T07:31:51.506Z,28.65
2022-12-03T07:34:18.052Z,29.90
2022-12-03T07:36:44.580Z,30.67
2022-12-03T07:39:11.218Z,26.55
2022-12-03T07:41:37.743Z,30.42
2022-12-03T07:44:09.144Z,30.05
2022-12-03T07:46:38.990Z,27.08
2022-12-03T07:49:05.539Z,24.30
2022-12-03T07:51:34.445Z,30.25
2022-12-03T07:54:00.921Z,32.33
2022-12-03T07:56:27.398Z,31.48
2022-12-03T07:58:53.894Z,34.90
2022-12-03T08:01:20.567Z,31.25
2022-12-03T08:03:47.153Z,31.77
2022-12-03T08:06:13.703Z,35.78
2022-12-03T08:08:40.193Z,35.03
2022-12-03T08:11:06.872Z,35.33
2022-12-03T08:13:36.620Z,34.35
2022-12-03T08:16:14.770Z,34.33
2022-12-03T08:18:41.326Z,32.92
2022-12-03T08:21:12.841Z,33.40
2022-12-03T08:23:42.148Z,33.42
2022-12-03T08:26:28.291Z,31.35
2022-12-03T08:28:57.016Z,32.33
2022-12-03T08:31:32.454Z,34.78
2022-12-03T08:34:15.946Z,34.60
2022-12-03T08:36:45.592Z,35.25
2022-12-03T08:39:28.058Z,32.92
2022-12-03T08:42:21.238Z,34.30
2022-12-03T08:44:47.848Z,34.55
2022-12-03T08:47:21.502Z,31.90
2022-12-03T08:52:26.675Z,31.77
2022-12-03T08:54:55.567Z,36.95
2022-12-03T08:57:27.822Z,34.58
2022-12-03T09:00:23.730Z,37.83
2022-12-03T09:02:55.351Z,36.95
2022-12-03T09:05:32.333Z,34.65
2022-12-03T09:08:01.256Z,35.28
2022-12-03T09:10:27.773Z,34.75
2022-12-03T09:12:54.256Z,32.30
2022-12-03T09:15:20.717Z,34.33
2022-12-03T09:17:48.846Z,32.70
2022-12-03T09:20:15.605Z,35.50
2022-12-03T09:22:44.573Z,33.00
2022-12-03T09:25:11.259Z,32.45
2022-12-03T09:27:37.758Z,35.38
2022-12-03T09:30:05.908Z,31.88
2022-12-03T09:32:34.804Z,34.47
2022-12-03T09:35:01.252Z,31.40
2022-12-03T09:37:27.700Z,33.35
2022-12-03T09:39:56.551Z,35.50
2022-12-03T09:42:23.173Z,35.17
2022-12-03T09:44:49.631Z,33.60
2022-12-03T09:47:16.129Z,33.40
2022-12-03T09:49:43.097Z,36.15
2022-12-03T09:52:19.034Z,32.15
2022-12-03T09:54:48.116Z,35.92
2022-12-03T09:57:15.968Z,32.95
2022-12-03T09:59:42.827Z,30.52
2022-12-03T10:02:35.833Z,30.67
2022-12-03T10:05:02.403Z,32.35
2022-12-03T10:07:28.934Z,30.70
2022-12-03T10:09:55.944Z,35.97
2022-12-03T10:12:24.810Z,42.70
2022-12-03T10:14:53.042Z,35.45
2022-12-03T10:17:19.744Z,33.08
2022-12-03T10:19:46.489Z,38.15
2022-12-03T10:22:13.221Z,36.75
2022-12-03T10:24:39.963Z,39.67
2022-12-03T10:27:24.529Z,38.25
2022-12-03T10:29:59.590Z,36.20
2022-12-03T10:32:42.759Z,33.53
2022-12-03T10:35:14.372Z,30.70
2022-12-03T10:37:57.571Z,31.98
2022-12-03T10:40:30.685Z,31.38
2022-12-03T10:43:19.561Z,30.05
2022-12-03T10:45:48.391Z,28.88
2022-12-03T10:48:20.954Z,30.42
2022-12-03T10:50:55.921Z,30.67
2022-12-03T10:53:34.364Z,28.60
2022-12-03T10:56:03.864Z,28.85
2022-12-03T10:58:41.659Z,29.55
2022-12-03T11:01:26.775Z,30.75
2022-12-03T11:03:56.528Z,30.95
2022-12-03T11:06:23.501Z,29.83
2022-12-03T11:08:57.110Z,30.65
2022-12-03T11:11:26.992Z,28.73
2022-12-03T11:13:59.894Z,28.92
2022-12-03T11:16:41.649Z,29.38
2022-12-03T11:19:40.478Z,28.65
2022-12-03T11:22:06.918Z,27.67
2022-12-03T11:24:36.089Z,26.77
2022-12-03T11:27:02.552Z,28.40
2022-12-03T11:29:49.737Z,27.98
2022-12-03T11:32:38.155Z,27.40
2022-12-03T11:35:11.949Z,29.92
2022-12-03T11:37:38.646Z,26.80
2022-12-03T11:40:28.034Z,26.05
2022-12-03T11:42:54.630Z,27.25
2022-12-03T11:45:36.717Z,22.83
2022-12-03T11:48:16.440Z,24.75
2022-12-03T11:50:53.443Z,28.98
2022-12-03T11:53:25.643Z,23.92
2022-12-03T11:56:09.038Z,28.58
2022-12-03T11:58:38.334Z,29.58
2022-12-03T12:01:07.069Z,30.10
2022-12-03T12:03:45.833Z,27.23
2022-12-03T12:06:15.070Z,28.27
2022-12-03T12:08:56.074Z,27.73
2022-12-03T12:11:30.731Z,28.65
2022-12-03T12:14:06.610Z,28.15
2022-12-03T12:16:51.648Z,29.02
2022-12-03T12:19:36.644Z,29.42
2022-12-03T12:22:27.569Z,28.30
2022-12-03T12:24:55.038Z,28.40
2022-12-03T12:27:30.310Z,27.67
2022-12-03T12:30:06.594Z,28.23
2022-12-03T12:32:39.917Z,30.25
2022-12-03T12:35:15.015Z,28.90
2022-12-03T12:38:01.135Z,30.08
2022-12-03T12:40:33.500Z,28.27
2022-12-03T12:43:23.779Z,32.35
2022-12-03T12:46:47.321Z,35.90
2022-12-03T12:49:05.327Z,31.33
2022-12-03T12:51:43.429Z,29.75
2022-12-03T12:54:12.454Z,31.10
2022-12-03T12:56:42.792Z,30.67
2022-12-03T12:59:17.857Z,31.20
2022-12-03T13:01:45.971Z,33.40
2022-12-03T13:04:20.980Z,32.90
2022-12-03T13:06:49.979Z,30.70
2022-12-03T13:09:22.811Z,33.40
2022-12-03T13:12:03.949Z,30.17
2022-12-03T13:14:35.111Z,32.30
2022-12-03T13:17:10.809Z,31.80
2022-12-03T13:20:00.560Z,34.33
2022-12-03T13:22:27.913Z,31.02
2022-12-03T13:24:57.279Z,31.08
2022-12-03T13:27:32.692Z,33.00
2022-12-03T13:30:08.467Z,27.98
2022-12-03T13:32:37.789Z,30.98
2022-12-03T13:35:24.257Z,28.83
2022-12-03T13:37:53.582Z,34.15
2022-12-03T13:40:31.429Z,31.98
2022-12-03T13:42:59.437Z,30.15
2022-12-03T13:45:45.230Z,31.85
2022-12-03T13:48:28.994Z,33.00
2022-12-03T13:50:58.273Z,31.05
2022-12-03T13:53:33.851Z,31.08
2022-12-03T13:56:30.551Z,30.83
2022-12-03T13:59:00.807Z,31.15
2022-12-03T14:01:28.364Z,32.47
2022-12-03T14:03:54.934Z,32.53
2022-12-03T14:06:21.522Z,31.73
2022-12-03T14:08:48.060Z,33.10
2022-12-03T14:11:34.484Z,29.33
2022-12-03T14:14:01.032Z,29.92
2022-12-03T14:16:27.567Z,31.58
2022-12-03T14:18:54.115Z,32.10
2022-12-03T14:21:20.675Z,32.05
2022-12-03T14:23:47.196Z,28.95
2022-12-03T14:26:13.771Z,30.20
2022-12-03T14:28:40.299Z,33.90
2022-12-03T14:31:06.872Z,32.47
2022-12-03T14:33:33.483Z,29.55
2022-12-03T14:36:00.412Z,30.33
2022-12-03T14:38:27.086Z,33.00
2022-12-03T14:40:53.679Z,30.55
2022-12-03T14:43:20.331Z,33.83
2022-12-03T14:45:46.939Z,32.92
2022-12-03T14:48:13.758Z,32.80
2022-12-03T14:50:40.264Z,31.55
2022-12-03T14:53:06.755Z,31.63
2022-12-03T14:55:33.282Z,29.63
2022-12-03T14:57:59.760Z,29.88
2022-12-03T15:00:28.716Z,30.63
2022-12-03T15:02:55.240Z,30.75
2022-12-03T15:05:27.908Z,30.38
2022-12-03T15:07:55.304Z,29.63
2022-12-03T15:10:21.941Z,36.10
2022-12-03T15:12:48.477Z,31.95
2022-12-03T15:15:15.121Z,30.48
2022-12-03T15:17:41.895Z,31.55
2022-12-03T15:20:08.912Z,28.10
2022-12-03T15:22:35.431Z,30.67
2022-12-03T15:25:03.389Z,29.98
2022-12-03T15:27:30.027Z,30.50
2022-12-03T15:29:56.953Z,28.92
2022-12-03T15:32:23.931Z,35.25
2022-12-03T15:34:52.765Z,29.17
2022-12-03T15:37:19.389Z,33.08
2022-12-03T15:39:48.780Z,27.67
2022-12-03T15:42:15.494Z,27.88
2022-12-03T15:44:42.040Z,29.67
2022-12-03T15:47:08.513Z,27.08
2022-12-03T15:49:35.083Z,29.75
2022-12-03T15:52:01.647Z,28.17
2022-12-03T15:54:28.114Z,29.75
2022-12-03T15:56:57.441Z,28.65
2022-12-03T15:59:24.615Z,28.90
2022-12-03T16:01:51.168Z,27.25
2022-12-03T16:04:20.134Z,33.78
2022-12-03T16:06:46.680Z,32.90
2022-12-03T16:09:13.240Z,30.92
2022-12-03T16:11:39.755Z,27.10
2022-12-03T16:14:08.028Z,28.33
2022-12-03T16:16:34.695Z,26.95
2022-12-03T16:19:01.323Z,26.90
2022-12-03T16:21:27.818Z,28.42
2022-12-03T16:23:55.054Z,26.42
2022-12-03T16:26:22.381Z,30.15
2022-12-03T16:28:48.851Z,27.85
2022-12-03T16:31:15.353Z,29.98
2022-12-03T16:33:41.954Z,27.20
2022-12-03T16:36:08.797Z,26.38
2022-12-03T16:38:35.322Z,28.27
2022-12-03T16:41:02.218Z,30.80
2022-12-03T16:43:28.894Z,29.05
2022-12-03T16:46:13.803Z,26.90
2022-12-03T16:48:43.210Z,24.35
2022-12-03T16:51:10.829Z,26.38
2022-12-03T16:53:37.308Z,27.60
2022-12-03T16:56:06.316Z,25.48
2022-12-03T16:58:32.891Z,26.13
2022-12-03T17:00:59.602Z,27.55
2022-12-03T17:03:34.078Z,28.77
2022-12-03T17:06:01.672Z,24.13
2022-12-03T17:08:30.986Z,25.45
2022-12-03T17:10:57.803Z,24.38
2022-12-03T17:13:24.709Z,24.23
2022-12-03T17:15:51.437Z,55.00
2022-12-03T17:18:18.298Z,26.45
2022-12-03T17:20:45.098Z,27.33
2022-12-03T17:23:12.466Z,24.85
2022-12-03T17:25:41.261Z,25.95
2022-12-03T17:28:10.395Z,23.48
2022-12-03T17:30:39.372Z,23.48
2022-12-03T17:33:05.872Z,24.25
2022-12-03T17:35:33.096Z,26.08
2022-12-03T17:37:59.961Z,91.57
2022-12-03T17:40:27.148Z,55.60
2022-12-03T17:42:54.026Z,32.13
2022-12-03T17:45:20.914Z,26.98
2022-12-03T17:47:47.479Z,26.27
2022-12-03T17:50:14.190Z,25.33
2022-12-03T17:52:40.969Z,39.72
2022-12-03T17:55:12.728Z,35.35
2022-12-03T17:57:43.004Z,26.50
2022-12-03T18:00:11.239Z,24.90
2022-12-03T18:02:38.699Z,24.83
2022-12-03T18:05:05.851Z,23.85
2022-12-03T18:07:32.480Z,24.45
2022-12-03T18:10:01.489Z,21.30
2022-12-03T18:12:27.975Z,24.02
2022-12-03T18:14:54.502Z,22.95
2022-12-03T18:17:21.000Z,21.35
2022-12-03T18:19:49.792Z,25.17
2022-12-03T18:22:17.047Z,27.77
2022-12-03T18:24:50.201Z,18.52
2022-12-03T18:27:18.322Z,25.17
2022-12-03T18:29:44.984Z,20.75
2022-12-03T18:32:27.291Z,21.50
2022-12-03T18:34:54.930Z,18.27
2022-12-03T18:37:22.027Z,24.30
2022-12-03T18:39:49.079Z,20.35
2022-12-03T18:42:24.643Z,22.00
2022-12-03T18:44:54.267Z,26.75
2022-12-03T18:47:26.991Z,28.13
2022-12-03T18:49:54.499Z,42.73
2022-12-03T18:52:23.282Z,29.80
2022-12-03T18:54:50.096Z,29.75
2022-12-03T18:57:16.916Z,37.10
2022-12-03T18:59:43.459Z,45.33
2022-12-03T19:02:32.456Z,33.38
2022-12-03T19:05:05.853Z,25.35
2022-12-03T19:07:32.395Z,25.08
2022-12-03T19:09:59.030Z,26.05
2022-12-03T19:12:27.889Z,24.63
2022-12-03T19:14:54.384Z,24.80
2022-12-03T19:17:27.176Z,21.33
2022-12-03T19:19:54.387Z,22.13
2022-12-03T19:22:21.289Z,20.25
2022-12-03T19:24:47.793Z,28.05
2022-12-03T19:27:14.728Z,26.65
2022-12-03T19:29:41.623Z,27.08
2022-12-03T19:32:09.004Z,28.13
2022-12-03T19:34:35.785Z,27.35
2022-12-03T19:37:02.272Z,25.20
2022-12-03T19:39:28.809Z,24.80
2022-12-03T19:41:57.838Z,41.17
2022-12-03T19:44:24.400Z,34.10
2022-12-03T19:46:53.215Z,27.13
2022-12-03T19:49:22.358Z,27.33
2022-12-03T19:51:49.104Z,26.73
2022-12-03T19:54:16.493Z,21.70
2022-12-03T19:56:46.306Z,24.02
2022-12-03T19:59:14.151Z,22.45
2022-12-03T20:01:42.921Z,26.80
2022-12-03T20:04:13.756Z,24.98
2022-12-03T20:06:40.450Z,24.52
2022-12-03T20:09:12.772Z,25.77
2022-12-03T20:11:41.237Z,25.23
2022-12-03T20:14:13.811Z,27.60
2022-12-03T20:16:40.782Z,25.10
2022-12-03T20:19:08.509Z,24.80
2022-12-03T20:21:40.180Z,23.88
2022-12-03T20:24:08.589Z,22.73
2022-12-03T20:26:35.325Z,26.17
2022-12-03T20:29:01.986Z,23.58
2022-12-03T20:31:31.330Z,23.25
2022-12-03T20:34:03.528Z,24.60
2022-12-03T20:36:35.217Z,25.75
2022-12-03T20:39:04.848Z,23.33
2022-12-03T20:41:35.168Z,27.35
2022-12-03T20:44:03.248Z,23.67
2022-12-03T20:46:31.613Z,24.13
2022-12-03T20:48:59.256Z,24.55
2022-12-03T20:51:29.720Z,27.40
2022-12-03T20:54:01.164Z,24.73
2022-12-03T20:56:33.965Z,25.08
2022-12-03T20:59:05.128Z,27.07
2022-12-03T21:01:32.143Z,26.73
2022-12-03T21:03:59.207Z,27.13
2022-12-03T21:06:30.825Z,27.50
2022-12-03T21:08:59.044Z,26.35
2022-12-03T21:11:30.771Z,29.10
2022-12-03T21:14:00.434Z,24.63
2022-12-03T21:16:52.515Z,29.05
2022-12-03T21:19:18.293Z,27.10
2022-12-03T21:21:45.244Z,30.30
2022-12-03T21:24:13.542Z,30.00
2022-12-03T21:26:40.802Z,30.80
2022-12-03T21:29:07.613Z,32.05
2022-12-03T21:31:35.623Z,28.10
2022-12-03T21:34:03.090Z,34.20
2022-12-03T21:36:32.480Z,27.75
2022-12-03T21:38:59.048Z,30.33
2022-12-03T21:41:25.674Z,28.92
2022-12-03T21:43:52.385Z,27.08
2022-12-03T21:47:10.952Z,28.20
2022-12-03T21:49:07.724Z,31.10
2022-12-03T21:51:34.222Z,30.30
2022-12-03T21:54:03.280Z,30.08
2022-12-03T21:56:33.053Z,34.50
2022-12-03T21:58:59.572Z,29.73
2022-12-03T22:01:30.929Z,32.05
2022-12-03T22:03:57.629Z,29.63
2022-12-03T22:06:24.154Z,32.10
2022-12-03T22:08:53.022Z,29.95
2022-12-03T22:11:22.744Z,30.38
2022-12-03T22:13:51.799Z,31.25
2022-12-03T22:16:20.639Z,31.88
2022-12-03T22:18:50.010Z,28.27
2022-12-03T22:21:21.859Z,29.52
2022-12-03T22:23:48.386Z,28.45
2022-12-03T22:26:17.379Z,27.67
2022-12-03T22:28:49.528Z,32.08
2022-12-03T22:31:17.606Z,29.85
2022-12-03T22:33:48.184Z,31.42
2022-12-03T22:36:20.972Z,31.85
2022-12-03T22:38:49.161Z,33.50
2022-12-03T22:41:16.364Z,30.92
2022-12-03T22:43:43.086Z,31.00
2022-12-03T22:46:12.396Z,30.25
2022-12-03T22:48:40.357Z,30.88
2022-12-03T22:51:13.728Z,32.53
2022-12-03T22:53:43.687Z,32.42
2022-12-03T22:56:12.495Z,33.33
2022-12-03T22:58:42.725Z,34.58
2022-12-03T23:01:09.376Z,28.08
2022-12-03T23:03:37.014Z,28.95
2022-12-03T23:06:10.366Z,27.45
2022-12-03T23:08:36.814Z,26.83
2022-12-03T23:11:03.302Z,29.50
2022-12-03T23:13:29.869Z,30.02
2022-12-03T23:15:56.442Z,28.00
2022-12-03T23:18:23.239Z,28.92
2022-12-03T23:20:52.422Z,31.98
2022-12-03T23:23:20.901Z,31.02
2022-12-03T23:26:08.263Z,31.65
2022-12-03T23:28:36.584Z,34.60
2022-12-03T23:31:04.465Z,31.13
2022-12-03T23:33:36.621Z,30.55
2022-12-03T23:36:06.165Z,31.70
2022-12-03T23:38:32.775Z,29.38
2022-12-03T23:41:04.495Z,30.33
2022-12-03T23:43:31.180Z,26.98
2022-12-03T23:46:11.795Z,27.23
2022-12-03T23:48:39.248Z,25.17
2022-12-03T23:51:11.357Z,25.52
2022-12-03T23:53:39.592Z,27.00
2022-12-03T23:56:07.356Z,26.40
2022-12-03T23:58:34.146Z,24.75
